Time;durP1;ratioP1;P1;durP2;ratioP2;P2;SDS_P1;SDS_P2;PMS_P1;PMS_P2;Temp;Humidity;BMP_temperature;BMP_pressure;BME280_temperature;BME280_humidity;BME280_pressure;Samples;Min_cycle;Max_cycle;Signal;HPM_P1;HPM_P2
2022/05/19 00:02:14;;;;;;;;;8.00;8.00;;;;;25.69;52.03;100933.41;5038592;28;45474;-66
2022/05/19 00:04:40;;;;;;;;;12.25;9.00;;;;;25.69;52.00;100927.09;5037745;28;45528;-64
2022/05/19 00:07:06;;;;;;;;;12.50;12.25;;;;;25.70;52.04;100935.09;5050513;28;45867;-64
2022/05/19 00:09:31;;;;;;;;;13.75;12.50;;;;;25.67;51.90;100929.97;5031608;28;45426;-67
2022/05/19 00:11:59;;;;;;;;;15.00;13.50;;;;;25.61;53.17;100946.16;5023753;28;45442;-65
2022/05/19 00:14:25;;;;;;;;;12.75;11.75;;;;;25.57;52.27;100940.22;5023153;28;46057;-65
2022/05/19 00:16:52;;;;;;;;;14.50;13.25;;;;;25.60;52.43;100939.84;5019848;28;45454;-65
2022/05/19 00:19:18;;;;;;;;;10.75;10.75;;;;;25.60;51.95;100937.13;5028139;28;46230;-66
2022/05/19 00:21:44;;;;;;;;;10.00;10.00;;;;;25.64;52.00;100926.72;5031369;28;45467;-65
2022/05/19 00:24:10;;;;;;;;;11.25;10.00;;;;;25.55;51.82;100921.31;5036154;28;45299;-63
2022/05/19 00:26:36;;;;;;;;;12.00;10.50;;;;;25.57;51.81;100921.16;5019258;28;45322;-67
2022/05/19 00:29:02;;;;;;;;;3.50;1.00;;;;;25.59;52.13;100921.81;5024540;28;46786;-66
2022/05/19 00:31:29;;;;;;;;;11.50;10.25;;;;;25.57;51.99;100916.56;5040778;28;45524;-67
2022/05/19 00:33:55;;;;;;;;;11.00;11.00;;;;;25.55;51.91;100909.59;5019425;28;45213;-66
2022/05/19 00:36:21;;;;;;;;;9.00;9.00;;;;;25.55;51.98;100905.00;5024811;28;45581;-64
2022/05/19 00:38:47;;;;;;;;;11.00;11.00;;;;;25.49;52.72;100896.66;5049898;28;45378;-64
2022/05/19 00:41:14;;;;;;;;;9.75;9.75;;;;;25.47;52.68;100906.88;5028559;28;45539;-64
2022/05/19 00:43:42;;;;;;;;;12.00;10.00;;;;;25.43;52.86;100892.78;5038526;28;45449;-66
2022/05/19 00:46:20;;;;;;;;;9.50;9.50;;;;;25.42;53.08;100892.94;5039712;28;45812;-63
2022/05/19 00:48:58;;;;;;;;;9.75;9.75;;;;;25.41;53.16;100886.66;5026508;28;45441;-65
2022/05/19 00:51:49;;;;;;;;;11.00;11.00;;;;;25.37;53.02;100884.44;5031680;28;45411;-66
2022/05/19 00:54:39;;;;;;;;;12.75;11.00;;;;;25.35;53.32;100876.44;5049643;28;45313;-67
2022/05/19 00:57:16;;;;;;;;;13.50;10.50;;;;;25.32;53.70;100878.69;5039585;28;46081;-67
2022/05/19 00:59:58;;;;;;;;;15.00;11.00;;;;;25.27;53.35;100869.19;5043301;28;46126;-66
2022/05/19 01:02:29;;;;;;;;;14.75;12.75;;;;;25.28;53.91;100864.56;5031542;28;45477;-64
2022/05/19 01:05:10;;;;;;;;;13.25;10.50;;;;;25.23;53.80;100865.09;5036494;28;45189;-66
2022/05/19 01:07:46;;;;;;;;;15.00;12.75;;;;;25.22;54.07;100863.38;5035906;28;45486;-66
2022/05/19 01:10:12;;;;;;;;;13.00;11.75;;;;;25.18;54.12;100853.88;5033995;28;45436;-64
2022/05/19 01:12:39;;;;;;;;;12.75;12.75;;;;;25.17;54.48;100851.34;5041960;28;45418;-66
2022/05/19 01:15:05;;;;;;;;;10.75;10.75;;;;;25.16;54.22;100850.50;5032089;28;45595;-67
2022/05/19 01:17:34;;;;;;;;;12.00;11.75;;;;;25.16;54.29;100855.94;5033772;28;45586;-66
2022/05/19 01:20:09;;;;;;;;;8.50;8.50;;;;;25.13;53.74;100848.13;5020169;28;45517;-65
2022/05/19 01:22:47;;;;;;;;;12.50;11.00;;;;;25.15;54.30;100851.50;5022155;28;45644;-63
2022/05/19 01:25:19;;;;;;;;;10.50;10.50;;;;;25.13;54.72;100856.28;5028125;28;45428;-66
2022/05/19 01:27:45;;;;;;;;;12.50;11.00;;;;;25.10;54.77;100853.88;5036688;28;45465;-67
2022/05/19 01:30:11;;;;;;;;;12.25;11.75;;;;;25.07;54.66;100846.09;5040069;28;46068;-64
2022/05/19 01:32:36;;;;;;;;;10.50;10.50;;;;;25.07;55.47;100851.53;5038602;28;45556;-65
2022/05/19 01:35:03;;;;;;;;;14.00;12.00;;;;;25.00;55.15;100845.03;5033290;28;45490;-63
2022/05/19 01:37:29;;;;;;;;;11.50;11.50;;;;;25.02;54.70;100848.50;5029071;28;45520;-63
2022/05/19 01:40:11;;;;;;;;;11.25;11.25;;;;;24.98;55.28;100850.66;5040674;28;46110;-65
2022/05/19 01:43:01;;;;;;;;;8.00;8.00;;;;;24.98;55.43;100852.53;5040516;28;45512;-63
2022/05/19 01:45:51;;;;;;;;;13.00;12.00;;;;;24.94;55.66;100852.03;5034829;28;45262;-65
2022/05/19 01:48:42;;;;;;;;;13.50;12.25;;;;;24.90;56.06;100844.41;5036903;28;45448;-63
2022/05/19 01:51:13;;;;;;;;;12.25;10.50;;;;;24.88;55.61;100854.59;5019951;28;47431;-63
2022/05/19 01:53:47;;;;;;;;;11.75;11.75;;;;;24.86;55.86;100848.47;5040448;28;45550;-65
2022/05/19 01:56:43;;;;;;;;;12.00;12.00;;;;;24.85;55.74;100844.91;5035738;28;45445;-66
2022/05/19 01:59:11;;;;;;;;;15.50;14.25;;;;;24.84;56.31;100847.78;5036033;28;45537;-64
2022/05/19 02:01:42;;;;;;;;;15.00;14.00;;;;;24.77;56.57;100849.50;5032071;28;45476;-64
2022/05/19 02:04:46;;;;;;;;;12.50;10.50;;;;;24.78;56.37;100851.22;5017393;28;45494;-65
2022/05/19 02:07:15;;;;;;;;;13.75;13.75;;;;;24.77;56.32;100849.50;5012981;28;46682;-66
2022/05/19 02:09:53;;;;;;;;;17.50;14.00;;;;;24.73;56.26;100856.28;5017085;28;45630;-65
2022/05/19 02:12:21;;;;;;;;;11.00;9.50;;;;;24.73;56.49;100853.59;5022623;28;45379;-65
2022/05/19 02:14:53;;;;;;;;;11.00;9.25;;;;;24.66;57.09;100846.13;5031798;28;45381;-67
2022/05/19 02:17:23;;;;;;;;;13.75;12.25;;;;;24.71;57.16;100851.03;5028239;28;45488;-65
2022/05/19 02:19:54;;;;;;;;;11.75;11.25;;;;;24.70;56.72;100847.47;5015609;28;45434;-67
2022/05/19 02:22:25;;;;;;;;;13.00;13.00;;;;;24.70;56.65;100850.19;5025963;28;46375;-65
2022/05/19 02:25:01;;;;;;;;;12.75;12.00;;;;;24.72;57.10;100855.44;5015658;28;45265;-66
2022/05/19 02:27:35;;;;;;;;;13.75;13.50;;;;;24.70;57.01;100844.75;5021168;28;45257;-64
2022/05/19 02:30:05;;;;;;;;;17.50;14.50;;;;;24.68;56.79;100846.78;5019381;28;45402;-65
2022/05/19 02:32:30;;;;;;;;;11.25;9.75;;;;;24.68;57.27;100854.94;5029004;28;46270;-65
2022/05/19 02:34:56;;;;;;;;;14.00;12.25;;;;;24.68;57.03;100846.78;5019101;28;45410;-67
2022/05/19 02:37:21;;;;;;;;;12.25;11.00;;;;;24.64;57.30;100844.59;5016557;28;45861;-67
2022/05/19 02:39:47;;;;;;;;;14.50;14.50;;;;;24.64;57.31;100844.59;5017405;28;45510;-64
2022/05/19 02:42:12;;;;;;;;;15.00;13.50;;;;;24.63;57.00;100853.78;5030724;28;46259;-65
2022/05/19 02:44:38;;;;;;;;;14.75;11.50;;;;;24.61;57.48;100856.66;5035539;28;45258;-66
2022/05/19 02:47:04;;;;;;;;;15.25;13.00;;;;;24.57;57.63;100847.13;5036153;28;45488;-66
2022/05/19 02:49:29;;;;;;;;;16.50;14.75;;;;;24.56;57.79;100845.44;5035957;28;45556;-63
2022/05/19 02:51:55;;;;;;;;;14.50;13.50;;;;;24.54;57.67;100839.31;5031376;28;46016;-67
2022/05/19 02:54:21;;;;;;;;;12.75;11.50;;;;;24.54;57.96;100850.19;5036642;28;45240;-65
2022/05/19 02:56:48;;;;;;;;;9.25;9.25;;;;;24.52;57.59;100852.25;5030507;28;45224;-65
2022/05/19 02:59:13;;;;;;;;;13.25;11.25;;;;;24.53;58.00;100851.22;5035094;28;45551;-67
2022/05/19 03:01:40;;;;;;;;;12.50;12.50;;;;;24.51;57.74;100841.53;5025099;28;47901;-65
2022/05/19 03:04:05;;;;;;;;;18.00;13.75;;;;;24.44;57.83;100835.91;5034931;28;45456;-65
2022/05/19 03:06:30;;;;;;;;;15.00;13.00;;;;;24.46;57.74;100842.03;5036002;28;45342;-65
2022/05/19 03:08:56;;;;;;;;;13.00;13.00;;;;;24.48;57.68;100850.91;5030657;28;45499;-64
2022/05/19 03:11:21;;;;;;;;;13.50;13.50;;;;;24.51;57.60;100850.56;5035421;28;45445;-64
2022/05/19 03:13:47;;;;;;;;;17.50;15.75;;;;;24.49;57.74;100855.31;5032260;28;45416;-66
2022/05/19 03:16:12;;;;;;;;;14.00;14.00;;;;;24.45;58.19;100851.22;5039375;28;45401;-64
2022/05/19 03:18:38;;;;;;;;;11.75;11.25;;;;;24.42;58.34;100846.13;5035933;28;45456;-67
2022/05/19 03:21:03;;;;;;;;;13.00;12.00;;;;;24.41;58.13;100845.28;4997943;28;46837;-64
2022/05/19 03:23:28;;;;;;;;;13.25;13.00;;;;;24.39;58.54;100836.44;5030434;28;47224;-67
2022/05/19 03:25:55;;;;;;;;;14.33;14.33;;;;;24.41;58.34;100841.72;5035704;28;45342;-67
2022/05/19 03:28:20;;;;;;;;;15.00;15.00;;;;;24.39;58.37;100838.31;5039607;28;45506;-68
2022/05/19 03:30:46;;;;;;;;;13.75;13.75;;;;;24.39;58.06;100846.47;5030090;28;46131;-66
2022/05/19 03:33:12;;;;;;;;;13.50;12.00;;;;;24.37;58.58;100846.66;5034576;28;45394;-67
2022/05/19 03:35:37;;;;;;;;;13.50;11.75;;;;;24.35;57.99;100843.25;5019190;28;45810;-65
2022/05/19 03:38:03;;;;;;;;;18.25;14.50;;;;;24.34;58.29;100843.38;5041578;28;45600;-65
2022/05/19 03:40:28;;;;;;;;;14.75;13.75;;;;;24.33;58.64;100847.97;5022496;28;45311;-64
2022/05/19 03:42:54;;;;;;;;;12.75;12.75;;;;;24.27;58.50;100831.47;5055509;28;45319;-65
2022/05/19 03:45:19;;;;;;;;;13.00;13.00;;;;;24.29;58.56;100837.59;5039388;28;45451;-65
2022/05/19 03:47:44;;;;;;;;;15.25;12.25;;;;;24.28;58.63;100833.16;5035257;28;45647;-67
2022/05/19 03:50:10;;;;;;;;;13.50;12.50;;;;;24.27;58.44;100834.19;5027462;28;45538;-64
2022/05/19 03:52:38;;;;;;;;;17.50;15.50;;;;;24.24;58.64;100837.25;5027492;28;45473;-66
2022/05/19 03:55:04;;;;;;;;;14.25;13.75;;;;;24.26;58.21;100836.06;5034877;28;45537;-66
2022/05/19 03:57:29;;;;;;;;;12.50;11.50;;;;;24.26;58.30;100836.06;5030782;28;45636;-67
2022/05/19 03:59:55;;;;;;;;;14.25;13.75;;;;;24.26;57.93;100848.81;5030419;28;46132;-68
2022/05/19 04:02:20;;;;;;;;;12.50;12.50;;;;;24.22;58.36;100836.56;5041982;28;45230;-67
2022/05/19 04:04:46;;;;;;;;;14.67;12.67;;;;;24.23;58.86;100847.28;5034388;28;45593;-66
2022/05/19 04:07:11;;;;;;;;;13.50;12.00;;;;;24.10;58.55;100831.47;5035593;28;45644;-67
2022/05/19 04:09:36;;;;;;;;;12.50;12.50;;;;;24.14;58.58;100840.13;5036505;28;45231;-67
2022/05/19 04:12:02;;;;;;;;;15.75;14.50;;;;;24.17;58.80;100849.81;5042373;28;45423;-68
2022/05/19 04:14:28;;;;;;;;;19.00;13.00;;;;;24.13;58.62;100846.59;5049095;28;45440;-66
2022/05/19 04:16:53;;;;;;;;;14.00;14.00;;;;;24.13;58.35;100847.44;5021643;28;45549;-65
2022/05/19 04:19:19;;;;;;;;;12.00;12.00;;;;;24.11;58.63;100844.03;5015662;28;46364;-63
2022/05/19 04:21:45;;;;;;;;;15.00;14.00;;;;;24.11;58.50;100838.59;5025540;28;45474;-64
2022/05/19 04:24:12;;;;;;;;;16.25;14.50;;;;;24.11;58.70;100848.63;5039938;28;45338;-64
2022/05/19 04:26:37;;;;;;;;;15.67;13.33;;;;;24.12;58.36;100842.16;5035096;28;45709;-65
2022/05/19 04:29:03;;;;;;;;;14.75;13.50;;;;;24.11;58.42;100844.03;5048747;28;46177;-67
2022/05/19 04:31:29;;;;;;;;;14.33;14.33;;;;;24.13;58.68;100841.16;5024516;28;45804;-66
2022/05/19 04:33:54;;;;;;;;;13.33;13.33;;;;;24.10;58.44;100847.78;5038399;28;45375;-66
2022/05/19 04:36:20;;;;;;;;;15.50;13.50;;;;;24.12;58.33;100845.72;5037136;28;45310;-63
2022/05/19 04:38:45;;;;;;;;;18.25;13.25;;;;;24.13;58.64;100858.31;5039505;28;46076;-66
2022/05/19 04:41:10;;;;;;;;;16.33;14.67;;;;;24.06;58.79;100840.09;5023591;28;45233;-66
2022/05/19 04:43:36;;;;;;;;;15.50;14.25;;;;;24.10;58.49;100852.34;5024073;28;45459;-66
2022/05/19 04:46:01;;;;;;;;;13.00;12.00;;;;;24.13;58.00;100850.16;5036650;28;45173;-63
2022/05/19 04:48:27;;;;;;;;;12.25;12.25;;;;;24.10;57.95;100853.22;5037164;28;45430;-66
2022/05/19 04:50:55;;;;;;;;;12.75;12.75;;;;;24.10;58.42;100866.78;5026983;28;45426;-65
2022/05/19 04:53:21;;;;;;;;;12.75;12.75;;;;;24.09;58.38;100872.41;5018533;28;45426;-64
2022/05/19 04:55:47;;;;;;;;;19.00;19.00;;;;;24.11;58.67;100886.66;5018861;28;45541;-67
2022/05/19 04:58:13;;;;;;;;;11.00;11.00;;;;;24.12;58.52;100891.94;5016800;28;45749;-66
2022/05/19 05:00:39;;;;;;;;;14.00;11.00;;;;;24.20;58.58;100895.66;5030338;28;45336;-66
2022/05/19 05:03:06;;;;;;;;;14.67;13.67;;;;;24.18;58.67;100894.97;5039051;28;45496;-66
2022/05/19 05:05:32;;;;;;;;;15.25;15.25;;;;;24.21;58.18;100909.06;5037079;28;45559;-63
2022/05/19 05:07:57;;;;;;;;;13.75;13.75;;;;;24.24;58.65;100914.22;5025744;28;45328;-58
2022/05/19 05:10:23;;;;;;;;;15.25;15.25;;;;;24.24;58.77;100914.22;5031925;28;45429;-61
2022/05/19 05:12:51;;;;;;;;;15.75;14.50;;;;;24.27;58.57;100913.00;5038821;28;45485;-58
2022/05/19 05:15:17;;;;;;;;;13.00;10.50;;;;;24.28;58.43;100914.72;5017589;28;45590;-55
2022/05/19 05:17:42;;;;;;;;;16.00;14.00;;;;;24.29;58.24;100910.97;5024085;28;45433;-55
2022/05/19 05:20:11;;;;;;;;;11.00;11.00;;;;;24.33;57.84;100918.66;5032309;28;45579;-54
2022/05/19 05:22:40;;;;;;;;;14.50;13.25;;;;;24.35;58.03;100926.63;5041456;28;45644;-54
2022/05/19 05:25:10;;;;;;;;;14.25;14.25;;;;;24.35;58.25;100953.81;5034217;28;46131;-58
2022/05/19 05:27:36;;;;;;;;;14.00;14.00;;;;;24.38;58.29;100972.53;5036564;28;47575;-59
2022/05/19 05:30:04;;;;;;;;;18.50;13.75;;;;;24.38;58.13;100954.34;5025158;28;45966;-60
2022/05/19 05:32:29;;;;;;;;;15.50;14.00;;;;;24.32;58.01;100925.09;5032893;28;45420;-60
2022/05/19 05:34:55;;;;;;;;;13.00;13.00;;;;;24.36;57.92;100953.69;5029512;28;45552;-59
2022/05/19 05:37:20;;;;;;;;;17.25;14.50;;;;;24.36;58.02;100966.41;5037356;28;46183;-56
2022/05/19 05:39:46;;;;;;;;;18.00;15.25;;;;;24.38;58.23;100962.50;5024774;28;45325;-65
2022/05/19 05:42:11;;;;;;;;;15.00;15.00;;;;;24.38;58.08;100961.66;5040135;28;45512;-66
2022/05/19 05:44:36;;;;;;;;;12.00;12.00;;;;;24.41;58.48;100958.59;5032752;28;45478;-68
2022/05/19 05:47:02;;;;;;;;;12.00;12.00;;;;;24.45;58.10;100959.09;5028746;28;45405;-69
2022/05/19 05:49:28;;;;;;;;;11.00;11.00;;;;;24.38;57.94;100961.66;5037341;28;45296;-68
2022/05/19 05:51:53;;;;;;;;;16.67;14.00;;;;;24.45;58.08;100959.97;5037361;28;45508;-67
2022/05/19 05:54:19;;;;;;;;;16.75;14.75;;;;;24.48;57.93;100953.34;5032130;28;46675;-69
2022/05/19 05:56:44;;;;;;;;;14.00;14.00;;;;;24.51;57.48;100956.59;5032965;28;46173;-65
2022/05/19 05:59:10;;;;;;;;;14.75;12.75;;;;;24.55;58.00;100959.81;5016314;28;45362;-69
2022/05/19 06:01:36;;;;;;;;;10.00;10.00;;;;;24.53;57.57;100945.53;5027904;28;45414;-65
2022/05/19 06:04:02;;;;;;;;;13.00;11.75;;;;;24.58;57.38;100938.56;5024688;28;45660;-64
2022/05/19 06:06:28;;;;;;;;;12.25;12.25;;;;;24.67;57.17;100951.16;5032977;28;45306;-69
2022/05/19 06:08:54;;;;;;;;;16.00;13.00;;;;;24.74;57.08;100947.75;5037026;28;45449;-69
2022/05/19 06:11:19;;;;;;;;;10.50;10.50;;;;;24.74;56.73;100940.47;5035315;28;45577;-64
2022/05/19 06:13:45;;;;;;;;;11.75;11.75;;;;;24.75;56.87;100939.44;5052340;28;45326;-68
2022/05/19 06:16:11;;;;;;;;;11.25;11.25;;;;;24.78;56.41;100943.69;5020716;28;47927;-68
2022/05/19 06:18:37;;;;;;;;;12.75;10.75;;;;;24.82;56.30;100945.03;5020808;28;46643;-68
2022/05/19 06:21:03;;;;;;;;;10.50;10.50;;;;;24.75;56.50;100938.59;5028209;28;45527;-64
2022/05/19 06:23:29;;;;;;;;;13.25;12.00;;;;;24.74;56.39;100953.19;5036752;28;45489;-67
2022/05/19 06:25:55;;;;;;;;;12.00;12.00;;;;;24.74;56.74;100954.06;5017502;28;45240;-62
2022/05/19 06:28:20;;;;;;;;;11.75;11.75;;;;;24.74;56.84;100947.75;5048367;28;45206;-68
2022/05/19 06:30:46;;;;;;;;;16.00;15.25;;;;;24.81;56.79;100956.94;5051557;28;45223;-67
2022/05/19 06:33:12;;;;;;;;;16.00;13.25;;;;;24.86;56.94;100957.28;5018646;28;46392;-67
2022/05/19 06:35:38;;;;;;;;;12.00;12.00;;;;;24.86;56.55;100936.38;5021419;28;46079;-67
2022/05/19 06:38:04;;;;;;;;;14.00;14.00;;;;;24.84;56.75;100932.13;5029192;28;45505;-66
2022/05/19 06:40:31;;;;;;;;;11.25;10.75;;;;;24.83;56.69;100935.88;5036335;28;45432;-65
2022/05/19 06:42:57;;;;;;;;;12.25;12.25;;;;;24.88;56.83;100947.97;5024094;28;45505;-64
2022/05/19 06:45:25;;;;;;;;;13.50;13.50;;;;;24.86;56.47;100960.84;5018629;28;45488;-67
2022/05/19 06:47:52;;;;;;;;;13.75;12.25;;;;;24.85;56.63;100956.44;5028347;28;45249;-66
2022/05/19 06:50:20;;;;;;;;;9.50;9.50;;;;;24.85;56.58;100959.16;5030054;28;45580;-66
2022/05/19 06:52:52;;;;;;;;;13.50;13.50;;;;;24.90;56.52;100959.50;5036124;28;45418;-66
2022/05/19 06:55:20;;;;;;;;;15.00;14.25;;;;;24.92;56.59;100968.34;5036069;28;46188;-66
2022/05/19 06:57:46;;;;;;;;;18.75;16.75;;;;;24.94;56.68;100968.19;5034965;28;45365;-66
2022/05/19 07:00:16;;;;;;;;;15.50;15.00;;;;;24.93;56.48;100969.19;5036120;28;45770;-67
2022/05/19 07:02:44;;;;;;;;;13.25;13.25;;;;;24.93;56.33;100969.19;5036362;28;45446;-66
2022/05/19 07:05:09;;;;;;;;;17.75;15.00;;;;;24.93;56.62;100971.91;5025284;28;46005;-67
2022/05/19 07:07:35;;;;;;;;;16.25;16.25;;;;;24.97;56.40;100959.66;5035165;28;45402;-66
2022/05/19 07:10:01;;;;;;;;;9.25;8.75;;;;;24.97;56.30;100960.50;5030753;28;45465;-66
2022/05/19 07:12:26;;;;;;;;;16.25;15.25;;;;;25.03;56.33;100963.63;5034798;28;45495;-68
2022/05/19 07:14:52;;;;;;;;;17.25;16.50;;;;;25.03;56.12;100969.91;5030705;28;45926;-66
2022/05/19 07:17:18;;;;;;;;;15.75;15.75;;;;;25.00;56.46;100962.03;5026640;28;45460;-65
2022/05/19 07:22:29;;;;;;;;;16.75;16.25;;;;;25.06;56.42;100976.88;5016546;28;45545;-67
2022/05/19 07:24:54;;;;;;;;;19.00;16.00;;;;;25.05;56.45;100977.91;5017080;28;46825;-66
2022/05/19 07:27:20;;;;;;;;;17.00;16.00;;;;;25.04;56.41;100971.63;5022304;28;45223;-67
2022/05/19 07:29:45;;;;;;;;;16.50;16.50;;;;;25.00;56.34;100964.75;5015324;28;45241;-66
2022/05/19 07:32:11;;;;;;;;;21.25;18.50;;;;;25.03;56.64;100961.75;5022389;28;45769;-66
2022/05/19 07:34:39;;;;;;;;;15.00;15.00;;;;;24.99;56.58;100954.91;5035399;28;45592;-68
2022/05/19 07:37:04;;;;;;;;;18.75;16.75;;;;;25.02;56.45;100978.25;5036063;28;45416;-66
2022/05/19 07:39:30;;;;;;;;;20.00;19.50;;;;;25.01;56.34;100965.66;5035692;28;45347;-66
2022/05/19 07:41:57;;;;;;;;;21.25;18.00;;;;;25.05;56.78;100973.31;5036040;28;45596;-67
2022/05/19 07:44:26;;;;;;;;;22.75;19.50;;;;;25.04;56.67;100987.94;5035121;28;45405;-67
2022/05/19 07:46:52;;;;;;;;;19.50;18.00;;;;;25.05;57.16;100986.91;5035680;28;45267;-67
2022/05/19 07:49:17;;;;;;;;;22.25;19.25;;;;;25.03;57.19;100980.81;5035736;28;45166;-67
2022/05/19 07:51:44;;;;;;;;;21.75;18.00;;;;;25.06;56.97;100975.00;5034410;28;45235;-69
2022/05/19 07:54:13;;;;;;;;;19.75;19.25;;;;;25.12;56.62;100985.19;5034216;28;46175;-66
2022/05/19 07:56:40;;;;;;;;;19.00;19.00;;;;;25.12;56.52;100984.34;5035997;28;45397;-66
2022/05/19 07:59:08;;;;;;;;;22.00;16.75;;;;;25.11;56.71;100988.09;5038927;28;45374;-68
2022/05/19 08:01:34;;;;;;;;;17.00;17.00;;;;;25.13;56.32;100989.66;5038699;28;45292;-67
2022/05/19 08:04:01;;;;;;;;;19.25;18.75;;;;;25.09;56.27;100992.88;5037186;28;47218;-67
2022/05/19 08:06:28;;;;;;;;;17.25;16.75;;;;;25.25;56.64;101020.06;5038943;28;45419;-69
2022/05/19 08:08:58;;;;;;;;;18.50;18.25;;;;;25.33;55.58;101021.94;5034078;28;45533;-57
2022/05/19 08:11:24;;;;;;;;;17.00;17.00;;;;;25.45;55.73;101018.69;5029999;28;45696;-56
2022/05/19 08:16:35;;;;;;;;;16.00;15.50;;;;;25.72;55.88;101030.25;5045944;28;45469;-54
2022/05/19 08:19:01;;;;;;;;;17.75;16.75;;;;;25.96;55.55;101032.06;5038798;28;45455;-55
2022/05/19 08:21:27;;;;;;;;;19.00;18.25;;;;;26.22;54.83;101045.44;5038910;28;45481;-53
2022/05/19 08:23:52;;;;;;;;;17.25;17.25;;;;;26.45;54.46;101051.84;5036557;28;46306;-54
2022/05/19 08:26:20;;;;;;;;;16.25;15.75;;;;;26.67;53.68;101059.19;5037993;28;45402;-55
2022/05/19 08:28:47;;;;;;;;;17.75;17.25;;;;;26.93;53.40;101058.88;5024720;28;45359;-56
2022/05/19 08:31:20;;;;;;;;;15.25;15.25;;;;;27.35;52.39;101056.72;5017415;28;45332;-55
2022/05/19 08:33:47;;;;;;;;;17.50;16.00;;;;;27.75;50.82;101086.44;5018179;28;46414;-54
2022/05/19 08:36:13;;;;;;;;;15.20;15.00;;;;;27.84;50.35;101090.75;5027368;28;45460;-56
2022/05/19 08:38:39;;;;;;;;;13.00;13.00;;;;;27.99;49.66;101096.22;5049760;28;45332;-54
2022/05/19 08:41:09;;;;;;;;;13.60;12.00;;;;;28.07;49.92;101107.09;5044001;28;45545;-53
2022/05/19 08:43:57;;;;;;;;;12.60;12.20;;;;;27.91;49.24;101118.22;5042768;28;45392;-55
2022/05/19 08:46:33;;;;;;;;;13.40;13.40;;;;;27.58;49.47;101110.28;5028706;28;45335;-53
2022/05/19 08:49:07;;;;;;;;;17.00;11.60;;;;;27.62;49.87;101113.50;5046861;28;45354;-55
2022/05/19 08:52:09;;;;;;;;;10.80;9.20;;;;;27.89;49.48;101117.56;5036829;28;45279;-52
2022/05/19 08:54:37;;;;;;;;;12.20;10.40;;;;;28.14;48.31;101118.16;5030899;28;45314;-52
2022/05/19 08:57:21;;;;;;;;;11.80;10.60;;;;;28.28;46.67;101127.41;5037661;28;45245;-53
2022/05/19 09:00:11;;;;;;;;;13.40;13.20;;;;;28.03;47.20;101115.88;5036712;28;45296;-55
2022/05/19 09:03:04;;;;;;;;;11.00;10.80;;;;;28.14;46.62;101116.25;5018689;28;45408;-50
2022/05/19 09:05:58;;;;;;;;;10.60;8.60;;;;;28.01;46.76;101129.72;5032873;28;46021;-55
2022/05/19 09:08:59;;;;;;;;;8.80;8.80;;;;;28.23;46.64;101136.13;5036183;28;45308;-53
2022/05/19 09:11:39;;;;;;;;;8.40;8.00;;;;;28.19;44.55;101152.09;5043760;28;45323;-55
2022/05/19 09:14:27;;;;;;;;;10.80;8.40;;;;;27.91;44.86;101161.94;5036141;28;45332;-53
2022/05/19 09:17:00;;;;;;;;;7.00;5.80;;;;;27.97;45.92;101172.13;5017436;28;46535;-54
2022/05/19 09:19:35;;;;;;;;;5.00;5.00;;;;;28.13;44.44;101182.94;5017791;28;45445;-54
2022/05/19 09:22:06;;;;;;;;;9.40;7.80;;;;;28.02;44.10;101185.25;5018129;28;45562;-54
2022/05/19 09:24:32;;;;;;;;;8.50;7.50;;;;;27.57;44.68;101204.19;5018139;28;45279;-52
2022/05/19 09:27:00;;;;;;;;;12.50;11.50;;;;;27.14;45.89;101204.84;5018823;28;46147;-55
2022/05/19 09:29:43;;;;;;;;;13.40;11.80;;;;;26.91;45.82;101196.56;5022706;28;45433;-55
2022/05/19 09:32:13;;;;;;;;;17.50;13.00;;;;;26.92;46.00;101203.72;5033725;28;45296;-56
2022/05/19 09:34:46;;;;;;;;;14.75;13.25;;;;;27.13;46.00;101205.88;5035045;28;45657;-51
2022/05/19 09:37:18;;;;;;;;;18.80;15.60;;;;;27.22;44.71;101215.72;5033498;28;45508;-68
2022/05/19 09:39:47;;;;;;;;;17.25;15.25;;;;;26.99;44.88;101215.63;5037368;28;45613;-68
2022/05/19 09:42:16;;;;;;;;;13.50;13.50;;;;;27.15;44.19;101231.09;5025837;28;45354;-69
2022/05/19 09:44:54;;;;;;;;;19.75;17.00;;;;;27.43;44.24;101229.56;5017313;28;45446;-71
2022/05/19 09:47:33;;;;;;;;;17.50;16.25;;;;;27.81;43.84;101225.06;5017111;28;46253;-71
2022/05/19 09:50:18;;;;;;;;;15.40;14.80;;;;;27.57;42.79;101230.69;5017504;28;45367;-69
2022/05/19 09:52:45;;;;;;;;;14.40;11.80;;;;;27.40;43.45;101235.41;5015830;28;45371;-68
2022/05/19 09:55:14;;;;;;;;;12.75;10.00;;;;;27.78;43.47;101250.03;5016044;28;45266;-70
2022/05/19 09:57:51;;;;;;;;;11.50;10.00;;;;;28.27;41.15;101254.28;5017027;28;45297;-68
2022/05/19 10:00:25;;;;;;;;;10.80;9.20;;;;;28.54;41.44;101256.41;5019521;28;45355;-71
2022/05/19 10:02:55;;;;;;;;;11.20;9.00;;;;;28.75;40.33;101264.69;5036928;28;45626;-70
2022/05/19 10:05:42;;;;;;;;;9.00;9.00;;;;;28.94;40.81;101262.47;5035887;28;45433;-69
2022/05/19 10:08:20;;;;;;;;;17.50;16.25;;;;;29.43;39.26;101253.59;5037232;28;45335;-68
2022/05/19 10:10:55;;;;;;;;;6.60;6.60;;;;;29.56;38.24;101248.28;5037292;28;45416;-70
2022/05/19 10:13:27;;;;;;;;;5.60;5.60;;;;;29.66;38.66;101229.63;5036549;28;45527;-70
2022/05/19 10:16:05;;;;;;;;;7.50;7.00;;;;;29.69;39.02;101234.75;5015405;28;45268;-70
2022/05/19 10:19:07;;;;;;;;;5.60;4.80;;;;;29.44;38.06;101238.88;5015420;28;45319;-71
2022/05/19 10:22:00;;;;;;;;;2.40;2.40;;;;;29.19;38.09;101260.28;5016889;28;45339;-71
2022/05/19 10:24:47;;;;;;;;;3.20;3.20;;;;;28.76;37.93;101276.50;5015399;28;45351;-72
2022/05/19 10:33:30;;;;;;;;;3.40;2.80;;;;;28.20;39.77;101290.53;5016666;28;45194;-71
2022/05/19 10:36:10;;;;;;;;;3.20;3.20;;;;;28.27;38.58;101287.94;5016518;28;45458;-72
2022/05/19 10:38:42;;;;;;;;;4.40;4.20;;;;;28.10;39.85;101276.25;5016975;28;45173;-70
2022/05/19 10:41:10;;;;;;;;;5.40;2.80;;;;;28.27;39.27;101267.97;5033783;28;46012;-77
2022/05/19 10:43:57;;;;;;;;;3.60;2.80;;;;;28.31;39.15;101272.88;5037075;28;45407;-76
2022/05/19 10:46:29;;;;;;;;;4.80;3.20;;;;;28.40;38.87;101276.38;5036499;28;45434;-74
2022/05/19 10:49:10;;;;;;;;;7.00;7.00;;;;;28.38;39.02;101267.47;5036702;28;45403;-70
2022/05/19 10:52:28;;;;;;;;;5.60;4.00;;;;;28.06;38.61;101271.34;5036559;28;45362;-71
2022/05/19 10:55:08;;;;;;;;;3.20;3.20;;;;;28.15;38.55;101273.84;5036235;28;45332;-71
2022/05/19 10:58:04;;;;;;;;;5.20;4.60;;;;;28.14;38.79;101283.06;5035277;28;45422;-70
2022/05/19 11:01:09;;;;;;;;;6.40;6.20;;;;;27.68;39.45;101287.69;5036353;28;45401;-71
2022/05/19 11:03:56;;;;;;;;;4.00;2.40;;;;;27.59;39.95;101269.59;5036384;28;45427;-71
2022/05/19 11:06:58;;;;;;;;;1.40;1.40;;;;;27.71;39.15;101270.06;5035956;28;45326;-72
2022/05/19 11:09:44;;;;;;;;;7.60;6.00;;;;;27.67;39.48;101268.72;5036552;28;45850;-74
2022/05/19 11:12:15;;;;;;;;;6.20;4.20;;;;;27.59;39.14;101275.06;5036601;28;45356;-72
2022/05/19 11:15:09;;;;;;;;;3.00;3.00;;;;;27.40;39.33;101268.19;5035981;28;45492;-70
2022/05/19 11:17:45;;;;;;;;;7.80;6.20;;;;;27.51;39.42;101273.25;5027964;28;45332;-70
2022/05/19 11:20:21;;;;;;;;;4.80;3.20;;;;;27.65;39.70;101266.19;5036198;28;45370;-71
2022/05/19 11:22:51;;;;;;;;;2.00;2.00;;;;;27.65;38.97;101260.72;5036164;28;45453;-71
2022/05/19 11:28:34;;;;;;;;;4.80;3.40;;;;;27.72;38.87;101267.16;5035215;28;45444;-69
2022/05/19 11:31:06;;;;;;;;;3.00;3.00;;;;;27.83;38.81;101269.47;5035528;28;45322;-70
2022/05/19 11:33:39;;;;;;;;;1.80;1.80;;;;;28.05;38.44;101262.28;5039542;28;45560;-70
2022/05/19 11:36:16;;;;;;;;;1.80;1.00;;;;;28.14;37.56;101239.31;5039157;28;46372;-70
2022/05/19 11:39:20;;;;;;;;;2.00;2.00;;;;;28.08;36.62;101233.72;5039334;28;45227;-70
2022/05/19 11:41:48;;;;;;;;;2.00;1.00;;;;;28.01;36.54;101243.72;5032601;28;45379;-69
2022/05/19 11:44:21;;;;;;;;;2.40;2.00;;;;;27.86;36.46;101246.38;5038248;28;45618;-70